createdAt,value
2018-08-13T00:02:15.910Z,56.20
2018-08-13T00:04:44.260Z,55.70
2018-08-13T00:07:12.571Z,55.70
2018-08-13T00:09:41.937Z,55.80
2018-08-13T00:12:11.221Z,56.00
2018-08-13T00:14:39.640Z,56.40
2018-08-13T00:17:08.086Z,56.70
2018-08-13T00:19:36.522Z,57.10
2018-08-13T00:22:05.076Z,57.40
2018-08-13T00:24:33.461Z,58.10
2018-08-13T00:27:01.873Z,58.20
2018-08-13T00:29:30.459Z,58.30
2018-08-13T00:31:58.835Z,58.40
2018-08-13T00:34:27.193Z,58.70
2018-08-13T00:36:55.555Z,58.50
2018-08-13T00:39:23.925Z,58.10
2018-08-13T00:41:52.250Z,58.20
2018-08-13T00:44:20.577Z,58.40
2018-08-13T00:46:48.947Z,58.60
2018-08-13T00:49:17.359Z,58.40
2018-08-13T00:51:45.679Z,58.50
2018-08-13T00:54:14.008Z,58.50
2018-08-13T00:56:42.465Z,58.30
2018-08-13T00:59:10.735Z,58.20
2018-08-13T01:01:39.060Z,58.10
2018-08-13T01:04:07.411Z,58.10
2018-08-13T01:06:35.741Z,58.10
2018-08-13T01:09:06.396Z,58.10
2018-08-13T01:11:34.696Z,58.00
2018-08-13T01:14:03.270Z,58.00
2018-08-13T01:16:31.627Z,58.00
2018-08-13T01:19:00.034Z,58.00
2018-08-13T01:21:28.596Z,58.00
2018-08-13T01:23:56.940Z,57.90
2018-08-13T01:26:25.260Z,57.90
2018-08-13T01:28:53.766Z,57.90
2018-08-13T01:31:22.075Z,57.80
2018-08-13T01:33:50.396Z,57.90
2018-08-13T01:36:18.703Z,57.80
2018-08-13T01:38:47.011Z,57.80
2018-08-13T01:41:15.281Z,57.80
2018-08-13T01:43:43.598Z,57.80
2018-08-13T01:46:11.914Z,57.80
2018-08-13T01:48:40.213Z,57.60
2018-08-13T01:51:08.500Z,57.50
2018-08-13T01:53:36.787Z,57.70
2018-08-13T01:56:05.130Z,57.50
2018-08-13T01:58:33.404Z,57.50
2018-08-13T02:01:01.730Z,57.40
2018-08-13T02:03:30.022Z,57.60
2018-08-13T02:05:58.322Z,57.40
2018-08-13T02:08:26.629Z,57.50
2018-08-13T02:10:54.918Z,57.40
2018-08-13T02:13:23.202Z,57.60
2018-08-13T02:15:51.482Z,57.40
2018-08-13T02:18:19.758Z,57.30
2018-08-13T02:20:48.057Z,57.40
2018-08-13T02:23:16.347Z,57.30
2018-08-13T02:25:44.625Z,57.30
2018-08-13T02:28:12.916Z,57.30
2018-08-13T02:30:41.236Z,57.30
2018-08-13T02:33:09.523Z,57.30
2018-08-13T02:35:37.909Z,57.30
2018-08-13T02:38:06.194Z,57.30
2018-08-13T02:40:34.516Z,57.20
2018-08-13T02:43:02.859Z,57.20
2018-08-13T02:45:31.113Z,57.20
2018-08-13T02:47:59.389Z,57.20
2018-08-13T02:50:27.680Z,57.10
2018-08-13T02:52:55.956Z,57.10
2018-08-13T02:55:24.270Z,57.20
2018-08-13T02:57:52.543Z,57.00
2018-08-13T03:00:20.851Z,56.90
2018-08-13T03:02:49.170Z,57.10
2018-08-13T03:05:17.432Z,57.10
2018-08-13T03:07:45.716Z,57.10
2018-08-13T03:10:14.172Z,57.20
2018-08-13T03:12:42.975Z,57.10
2018-08-13T03:15:13.529Z,57.10
2018-08-13T03:17:41.875Z,56.70
2018-08-13T03:20:10.308Z,56.90
2018-08-13T03:22:38.607Z,57.10
2018-08-13T03:25:08.589Z,56.70
2018-08-13T03:27:36.847Z,56.60
2018-08-13T03:30:08.841Z,56.60
2018-08-13T03:32:37.254Z,57.00
2018-08-13T03:35:05.539Z,56.60
2018-08-13T03:37:33.844Z,57.10
2018-08-13T03:40:02.126Z,57.00
2018-08-13T03:42:30.446Z,57.10
2018-08-13T03:44:58.731Z,56.60
2018-08-13T03:47:27.216Z,57.00
2018-08-13T03:49:55.508Z,57.00
2018-08-13T03:52:23.856Z,56.60
2018-08-13T03:54:52.142Z,56.60
2018-08-13T03:57:20.435Z,56.60
2018-08-13T03:59:48.699Z,56.90
2018-08-13T04:02:17.021Z,56.60
2018-08-13T04:04:45.290Z,56.60
2018-08-13T04:07:13.580Z,57.00
2018-08-13T04:09:44.039Z,56.70
2018-08-13T04:12:13.248Z,56.80
2018-08-13T04:14:41.503Z,57.10
2018-08-13T04:17:09.828Z,57.10
2018-08-13T04:19:38.104Z,57.20
2018-08-13T04:22:06.490Z,57.10
2018-08-13T04:24:34.823Z,56.80
2018-08-13T04:27:03.090Z,56.80
2018-08-13T04:29:31.368Z,56.80
2018-08-13T04:31:59.682Z,56.60
2018-08-13T04:34:27.951Z,56.60
2018-08-13T04:36:56.214Z,56.50
2018-08-13T04:39:24.558Z,57.40
2018-08-13T04:41:52.793Z,57.10
2018-08-13T04:44:21.153Z,56.80
2018-08-13T04:46:49.410Z,56.80
2018-08-13T04:49:17.738Z,56.70
2018-08-13T04:51:46.037Z,56.80
2018-08-13T04:54:14.358Z,56.90
2018-08-13T04:56:42.623Z,56.70
2018-08-13T04:59:10.906Z,56.50
2018-08-13T05:01:39.179Z,56.90
2018-08-13T05:04:07.447Z,56.90
2018-08-13T05:06:35.727Z,56.90
2018-08-13T05:09:06.047Z,56.70
2018-08-13T05:11:34.411Z,57.00
2018-08-13T05:14:03.012Z,56.80
2018-08-13T05:16:31.315Z,57.10
2018-08-13T05:18:59.646Z,56.60
2018-08-13T05:21:28.077Z,57.00
2018-08-13T05:23:56.333Z,57.00
2018-08-13T05:26:24.626Z,56.90
2018-08-13T05:28:52.887Z,56.90
2018-08-13T05:31:21.375Z,57.10
2018-08-13T05:33:49.651Z,57.10
2018-08-13T05:36:18.020Z,56.90
2018-08-13T05:38:46.301Z,57.10
2018-08-13T05:41:14.583Z,56.90
2018-08-13T05:43:42.933Z,57.00
2018-08-13T05:46:11.219Z,57.00
2018-08-13T05:48:39.511Z,57.10
2018-08-13T05:51:07.801Z,56.90
2018-08-13T05:53:36.125Z,56.90
2018-08-13T05:56:04.418Z,56.90
2018-08-13T05:58:32.674Z,57.00
2018-08-13T06:01:01.009Z,57.10
2018-08-13T06:03:29.284Z,57.10
2018-08-13T06:05:57.570Z,57.10
2018-08-13T06:08:25.863Z,57.00
2018-08-13T06:10:54.142Z,56.90
2018-08-13T06:13:22.412Z,57.10
2018-08-13T06:15:50.703Z,56.90
2018-08-13T06:18:18.973Z,57.00
2018-08-13T06:20:47.243Z,56.60
2018-08-13T06:23:15.519Z,56.90
2018-08-13T06:25:43.801Z,57.00
2018-08-13T06:28:12.146Z,56.60
2018-08-13T06:30:40.349Z,57.00
2018-08-13T06:33:08.802Z,56.90
2018-08-13T06:35:37.098Z,56.60
2018-08-13T06:38:05.421Z,56.70
2018-08-13T06:40:33.689Z,56.70
2018-08-13T06:43:01.979Z,56.80
2018-08-13T06:45:30.268Z,58.30
2018-08-13T06:47:58.576Z,58.90
2018-08-13T06:50:26.859Z,59.60
2018-08-13T06:52:55.210Z,60.20
2018-08-13T06:55:23.521Z,60.70
2018-08-13T06:57:51.846Z,61.20
2018-08-13T07:00:20.174Z,61.60
2018-08-13T07:02:48.576Z,61.80
2018-08-13T07:05:16.928Z,61.90
2018-08-13T07:07:45.263Z,61.90
2018-08-13T07:10:14.916Z,62.10
2018-08-13T07:12:45.244Z,62.10
2018-08-13T07:15:14.308Z,62.40
2018-08-13T07:17:42.697Z,62.70
2018-08-13T07:20:12.929Z,62.60
2018-08-13T07:22:41.296Z,62.60
2018-08-13T07:25:09.993Z,63.00
2018-08-13T07:27:38.883Z,63.90
2018-08-13T07:30:09.614Z,63.30
2018-08-13T07:32:37.994Z,63.20
2018-08-13T07:35:06.859Z,63.40
2018-08-13T07:37:35.214Z,63.30
2018-08-13T07:40:04.647Z,63.40
2018-08-13T07:42:32.984Z,63.40
2018-08-13T07:45:01.307Z,63.60
2018-08-13T07:47:29.615Z,63.40
2018-08-13T07:49:58.097Z,63.50
2018-08-13T07:52:26.384Z,63.50
2018-08-13T07:54:54.700Z,64.00
2018-08-13T07:57:23.026Z,64.10
2018-08-13T07:59:51.360Z,64.10
2018-08-13T08:02:19.664Z,63.90
2018-08-13T08:04:48.097Z,64.40
2018-08-13T08:07:16.489Z,64.90
2018-08-13T08:09:44.824Z,64.90
2018-08-13T08:12:13.206Z,65.10
2018-08-13T08:14:41.698Z,65.30
2018-08-13T08:17:10.125Z,64.90
2018-08-13T08:19:38.530Z,65.10
2018-08-13T08:22:06.859Z,65.50
2018-08-13T08:24:35.237Z,65.50
2018-08-13T08:27:03.629Z,65.50
2018-08-13T08:29:31.967Z,65.50
2018-08-13T08:32:00.361Z,65.50
2018-08-13T08:34:28.765Z,64.90
2018-08-13T08:36:57.225Z,64.50
2018-08-13T08:39:25.627Z,64.20
2018-08-13T08:41:53.963Z,64.40
2018-08-13T08:44:22.279Z,63.60
2018-08-13T08:46:50.684Z,64.30
2018-08-13T08:49:19.017Z,64.10
2018-08-13T08:51:47.336Z,64.10
2018-08-13T08:54:15.723Z,64.40
2018-08-13T08:56:44.289Z,64.30
2018-08-13T08:59:12.673Z,63.90
2018-08-13T09:01:41.234Z,63.60
2018-08-13T09:04:09.940Z,63.60
2018-08-13T09:06:38.431Z,63.90
2018-08-13T09:09:10.096Z,63.60
2018-08-13T09:11:38.415Z,63.30
2018-08-13T09:14:07.381Z,63.90
2018-08-13T09:16:35.686Z,64.00
2018-08-13T09:19:15.266Z,64.70
2018-08-13T09:21:43.609Z,65.30
2018-08-13T09:24:23.499Z,64.60
2018-08-13T09:27:03.320Z,65.00
2018-08-13T09:29:43.061Z,64.40
2018-08-13T09:32:27.277Z,64.80
2018-08-13T09:35:31.640Z,64.60
2018-08-13T09:38:00.099Z,64.90
2018-08-13T09:40:29.619Z,64.90
2018-08-13T09:42:58.151Z,65.10
2018-08-13T09:45:26.589Z,65.30
2018-08-13T09:47:54.951Z,65.50
2018-08-13T09:50:23.552Z,65.50
2018-08-13T09:52:52.143Z,66.10
2018-08-13T09:55:20.923Z,65.90
2018-08-13T09:57:49.921Z,65.60
2018-08-13T10:00:24.886Z,65.60
2018-08-13T10:02:53.198Z,65.60
2018-08-13T10:05:21.506Z,65.40
2018-08-13T10:07:49.832Z,64.60
2018-08-13T10:10:18.442Z,64.60
2018-08-13T10:12:47.150Z,64.30
2018-08-13T10:15:15.613Z,64.30
2018-08-13T10:17:44.065Z,64.40
2018-08-13T10:20:16.142Z,64.00
2018-08-13T10:22:44.654Z,63.70
2018-08-13T10:25:16.456Z,63.60
2018-08-13T10:27:44.796Z,64.20
2018-08-13T10:30:14.261Z,64.40
2018-08-13T10:32:44.800Z,63.90
2018-08-13T10:35:13.176Z,63.60
2018-08-13T10:37:41.917Z,64.00
2018-08-13T10:40:15.301Z,64.10
2018-08-13T10:42:43.772Z,64.10
2018-08-13T10:45:12.041Z,64.20
2018-08-13T10:47:40.335Z,64.40
2018-08-13T10:50:10.207Z,64.50
2018-08-13T10:52:38.811Z,64.10
2018-08-13T10:55:07.675Z,64.00
2018-08-13T10:57:35.978Z,64.10
2018-08-13T11:00:06.231Z,63.50
2018-08-13T11:02:34.533Z,63.00
2018-08-13T11:05:02.850Z,62.80
2018-08-13T11:07:31.153Z,63.00
2018-08-13T11:09:59.478Z,63.30
2018-08-13T11:12:27.770Z,62.60
2018-08-13T11:14:56.070Z,62.90
2018-08-13T11:17:24.470Z,63.00
2018-08-13T11:19:52.799Z,62.60
2018-08-13T11:22:21.105Z,62.20
2018-08-13T11:24:49.413Z,62.20
2018-08-13T11:27:17.693Z,62.40
2018-08-13T11:29:46.538Z,63.90
2018-08-13T11:32:14.873Z,66.00
2018-08-13T11:34:43.264Z,66.10
2018-08-13T11:37:11.527Z,66.90
2018-08-13T11:39:39.892Z,66.70
2018-08-13T11:42:08.242Z,67.30
2018-08-13T11:44:36.649Z,67.40
2018-08-13T11:47:05.049Z,67.80
2018-08-13T11:49:33.457Z,68.10
2018-08-13T11:52:01.831Z,67.90
2018-08-13T11:54:30.135Z,67.90
2018-08-13T11:56:58.574Z,67.40
2018-08-13T11:59:26.866Z,67.70
2018-08-13T12:01:58.427Z,67.60
2018-08-13T12:04:26.796Z,67.40
2018-08-13T12:06:55.288Z,67.20
2018-08-13T12:09:23.841Z,67.90
2018-08-13T12:11:52.174Z,67.80
2018-08-13T12:14:20.453Z,67.10
2018-08-13T12:16:48.757Z,68.20
2018-08-13T12:19:17.078Z,68.60
2018-08-13T12:21:45.367Z,68.70
2018-08-13T12:24:13.672Z,68.30
2018-08-13T12:26:41.943Z,68.80
2018-08-13T12:29:10.253Z,69.00
2018-08-13T12:31:38.739Z,69.30
2018-08-13T12:34:07.120Z,69.20
2018-08-13T12:36:35.485Z,69.80
2018-08-13T12:39:06.188Z,70.30
2018-08-13T12:41:34.474Z,70.20
2018-08-13T12:44:02.839Z,69.50
2018-08-13T12:46:31.155Z,70.00
2018-08-13T12:48:59.462Z,70.50
2018-08-13T12:51:27.762Z,71.00
2018-08-13T12:53:56.062Z,71.70
2018-08-13T12:56:24.350Z,72.30
2018-08-13T12:58:52.673Z,72.50
2018-08-13T13:01:20.973Z,72.30
2018-08-13T13:03:49.393Z,72.30
2018-08-13T13:06:17.700Z,72.40
2018-08-13T13:08:45.978Z,72.10
2018-08-13T13:11:14.263Z,72.40
2018-08-13T13:13:42.527Z,71.80
2018-08-13T13:16:10.835Z,72.20
2018-08-13T13:18:39.322Z,72.40
2018-08-13T13:21:08.290Z,71.80
2018-08-13T13:23:36.592Z,71.40
2018-08-13T13:26:04.979Z,70.80
2018-08-13T13:28:33.180Z,70.60
2018-08-13T13:31:01.455Z,70.60
2018-08-13T13:33:29.738Z,70.80
2018-08-13T13:35:58.281Z,70.40
2018-08-13T13:38:28.858Z,69.90
2018-08-13T13:40:57.246Z,68.80
2018-08-13T13:43:25.862Z,68.90
2018-08-13T13:45:54.290Z,68.40
2018-08-13T13:48:22.567Z,68.00
2018-08-13T13:50:51.047Z,67.50
2018-08-13T13:53:19.358Z,67.40
2018-08-13T13:55:48.199Z,67.20
2018-08-13T13:58:16.568Z,67.10
2018-08-13T14:00:44.883Z,67.00
2018-08-13T14:03:13.472Z,66.70
2018-08-13T14:05:41.935Z,66.50
2018-08-13T14:08:10.278Z,66.00
2018-08-13T14:10:43.204Z,65.80
2018-08-13T14:13:14.691Z,66.10
2018-08-13T14:15:46.515Z,66.00
2018-08-13T14:18:15.008Z,65.30
2018-08-13T14:20:43.535Z,65.30
2018-08-13T14:23:11.815Z,65.30
2018-08-13T14:25:40.130Z,64.80
2018-08-13T14:28:08.514Z,64.20
2018-08-13T14:30:36.858Z,64.20
2018-08-13T14:33:05.228Z,64.50
2018-08-13T14:35:33.767Z,65.50
2018-08-13T14:38:02.168Z,64.90
2018-08-13T14:40:30.830Z,64.80
2018-08-13T14:42:59.153Z,64.60
2018-08-13T14:45:27.438Z,64.40
2018-08-13T14:47:55.862Z,64.30
2018-08-13T14:50:24.342Z,63.70
2018-08-13T14:52:52.795Z,63.50
2018-08-13T14:55:22.073Z,63.10
2018-08-13T14:57:50.456Z,63.30
2018-08-13T15:00:23.628Z,63.10
2018-08-13T15:02:53.001Z,63.20
2018-08-13T15:05:21.336Z,63.10
2018-08-13T15:07:50.092Z,62.40
2018-08-13T15:10:20.975Z,61.40
2018-08-13T15:12:49.375Z,61.40
2018-08-13T15:15:17.864Z,61.90
2018-08-13T15:17:46.442Z,61.50
2018-08-13T15:20:19.506Z,61.80
2018-08-13T15:22:47.815Z,62.90
2018-08-13T15:25:16.382Z,62.40
2018-08-13T15:27:44.856Z,62.40
2018-08-13T15:30:15.028Z,62.40
2018-08-13T15:32:44.542Z,62.20
2018-08-13T15:35:12.907Z,62.40
2018-08-13T15:37:41.650Z,62.00
2018-08-13T15:40:10.516Z,61.70
2018-08-13T15:42:38.992Z,62.00
2018-08-13T15:45:10.409Z,62.10
2018-08-13T15:47:39.568Z,62.10
2018-08-13T15:50:08.957Z,62.10
2018-08-13T15:52:37.250Z,62.10
2018-08-13T15:55:05.660Z,62.40
2018-08-13T15:57:33.979Z,62.20
2018-08-13T16:00:02.570Z,62.10
2018-08-13T16:02:31.019Z,61.60
2018-08-13T16:04:59.636Z,62.00
2018-08-13T16:07:28.137Z,61.90
2018-08-13T16:09:56.409Z,61.70
2018-08-13T16:12:25.407Z,61.90
2018-08-13T16:14:53.712Z,61.70
2018-08-13T16:17:22.033Z,60.90
2018-08-13T16:19:50.381Z,61.00
2018-08-13T16:22:18.734Z,60.80
2018-08-13T16:24:47.450Z,61.20
2018-08-13T16:27:16.483Z,61.00
2018-08-13T16:29:44.814Z,61.10
2018-08-13T16:32:13.134Z,61.20
2018-08-13T16:34:41.499Z,60.80
2018-08-13T16:37:10.038Z,61.00
2018-08-13T16:39:39.038Z,60.80
2018-08-13T16:42:07.739Z,61.10
2018-08-13T16:44:36.771Z,60.80
2018-08-13T16:47:05.106Z,60.80
2018-08-13T16:49:34.910Z,60.80
2018-08-13T16:52:03.702Z,60.30
2018-08-13T16:54:32.055Z,60.10
2018-08-13T16:57:00.686Z,60.10
2018-08-13T16:59:29.015Z,60.10
2018-08-13T17:01:57.596Z,60.00
2018-08-13T17:04:26.318Z,60.10
2018-08-13T17:06:54.652Z,60.20
2018-08-13T17:09:23.036Z,61.10
2018-08-13T17:11:51.849Z,60.40
2018-08-13T17:14:20.915Z,60.40
2018-08-13T17:16:49.658Z,60.60
2018-08-13T17:19:18.232Z,60.30
2018-08-13T17:21:46.635Z,60.50
2018-08-13T17:24:15.513Z,60.40
2018-08-13T17:26:43.991Z,60.40
2018-08-13T17:29:12.347Z,60.40
2018-08-13T17:31:41.039Z,60.80
2018-08-13T17:34:10.271Z,60.30
2018-08-13T17:36:39.638Z,60.10
2018-08-13T17:39:12.349Z,60.10
2018-08-13T17:41:41.298Z,60.10
2018-08-13T17:44:09.914Z,59.90
2018-08-13T17:46:38.693Z,59.90
2018-08-13T17:49:07.807Z,60.10
2018-08-13T17:51:37.327Z,60.10
2018-08-13T17:54:06.629Z,60.50
2018-08-13T17:56:35.425Z,60.90
2018-08-13T17:59:03.749Z,61.00
2018-08-13T18:01:32.053Z,60.80
2018-08-13T18:04:00.725Z,60.90
2018-08-13T18:06:29.064Z,60.70
2018-08-13T18:08:58.128Z,60.70
2018-08-13T18:11:26.713Z,60.50
2018-08-13T18:13:55.312Z,60.70
2018-08-13T18:16:23.969Z,61.10
2018-08-13T18:18:52.690Z,61.10
2018-08-13T18:21:21.449Z,60.80
2018-08-13T18:23:50.004Z,60.50
2018-08-13T18:26:18.323Z,60.50
2018-08-13T18:28:46.670Z,60.50
2018-08-13T18:31:15.122Z,60.40
2018-08-13T18:33:43.439Z,60.40
2018-08-13T18:36:12.860Z,60.40
2018-08-13T18:38:41.709Z,60.70
2018-08-13T18:41:10.410Z,60.70
2018-08-13T18:43:39.010Z,61.00
2018-08-13T18:46:08.000Z,60.90
2018-08-13T18:48:37.910Z,60.40
2018-08-13T18:51:06.640Z,60.40
2018-08-13T18:53:35.447Z,60.40
2018-08-13T18:56:04.179Z,60.50
2018-08-13T18:58:32.730Z,60.40
2018-08-13T19:01:01.314Z,60.10
2018-08-13T19:03:30.186Z,60.00
2018-08-13T19:05:58.577Z,60.00
2018-08-13T19:08:26.895Z,60.10
2018-08-13T19:10:55.295Z,60.40
2018-08-13T19:13:23.952Z,60.40
2018-08-13T19:15:53.737Z,60.50
2018-08-13T19:18:22.669Z,60.40
2018-08-13T19:20:51.162Z,60.90
2018-08-13T19:23:19.552Z,61.30
2018-08-13T19:25:48.616Z,61.50
2018-08-13T19:28:16.945Z,61.50
2018-08-13T19:30:45.422Z,61.40
2018-08-13T19:33:15.654Z,62.40
2018-08-13T19:35:44.599Z,61.50
2018-08-13T19:38:12.987Z,61.50
2018-08-13T19:40:42.666Z,61.30
2018-08-13T19:43:11.247Z,61.70
2018-08-13T19:45:39.658Z,62.00
2018-08-13T19:48:08.251Z,61.80
2018-08-13T19:50:36.795Z,62.00
2018-08-13T19:53:05.476Z,61.90
2018-08-13T19:55:33.914Z,61.90
2018-08-13T19:58:02.477Z,62.50
2018-08-13T20:00:31.020Z,62.40
2018-08-13T20:02:59.556Z,62.30
2018-08-13T20:05:28.810Z,62.10
2018-08-13T20:07:57.377Z,62.40
2018-08-13T20:10:25.976Z,61.90
2018-08-13T20:12:54.602Z,62.50
2018-08-13T20:15:23.108Z,62.50
2018-08-13T20:17:51.729Z,62.50
2018-08-13T20:20:21.184Z,63.10
2018-08-13T20:22:50.500Z,63.20
2018-08-13T20:25:19.923Z,63.00
2018-08-13T20:27:49.181Z,63.10
2018-08-13T20:30:19.307Z,63.00
2018-08-13T20:32:49.300Z,63.10
2018-08-13T20:35:18.384Z,62.90
2018-08-13T20:37:46.788Z,62.70
2018-08-13T20:40:17.096Z,62.80
2018-08-13T20:42:46.651Z,63.30
2018-08-13T20:45:16.894Z,63.10
2018-08-13T20:47:46.014Z,63.30
2018-08-13T20:50:17.694Z,63.10
2018-08-13T20:52:46.929Z,63.00
2018-08-13T20:55:17.756Z,63.00
2018-08-13T20:57:47.542Z,63.30
2018-08-13T21:00:17.740Z,62.50
2018-08-13T21:02:47.100Z,62.30
2018-08-13T21:05:16.212Z,62.60
2018-08-13T21:07:45.933Z,62.70
2018-08-13T21:10:16.312Z,61.90
2018-08-13T21:12:44.842Z,62.00
2018-08-13T21:15:14.464Z,61.80
2018-08-13T21:17:43.042Z,61.90
2018-08-13T21:20:17.312Z,61.90
2018-08-13T21:22:45.847Z,62.30
2018-08-13T21:25:14.418Z,62.20
2018-08-13T21:27:43.502Z,62.10
2018-08-13T21:30:12.278Z,62.20
2018-08-13T21:32:41.425Z,62.10
2018-08-13T21:35:10.270Z,62.90
2018-08-13T21:37:38.787Z,62.20
2018-08-13T21:40:08.715Z,62.10
2018-08-13T21:42:37.147Z,62.10
2018-08-13T21:45:06.110Z,62.90
2018-08-13T21:47:34.438Z,62.80
2018-08-13T21:50:02.930Z,63.00
2018-08-13T21:52:31.280Z,63.40
2018-08-13T21:54:59.670Z,63.50
2018-08-13T21:57:28.115Z,64.10
2018-08-13T21:59:56.791Z,64.20
2018-08-13T22:02:25.132Z,64.40
2018-08-13T22:04:53.496Z,64.80
2018-08-13T22:07:21.800Z,64.60
2018-08-13T22:09:50.176Z,64.40
2018-08-13T22:12:19.647Z,64.60
2018-08-13T22:14:48.609Z,64.50
2018-08-13T22:17:17.193Z,63.90
2018-08-13T22:19:45.775Z,64.00
2018-08-13T22:22:14.101Z,64.30
2018-08-13T22:24:53.756Z,64.10
2018-08-13T22:27:22.294Z,63.70
2018-08-13T22:29:50.671Z,63.50
2018-08-13T22:32:19.097Z,63.60
2018-08-13T22:34:47.436Z,63.80
2018-08-13T22:37:15.852Z,64.00
2018-08-13T22:39:44.243Z,63.70
2018-08-13T22:42:12.662Z,64.00
2018-08-13T22:44:41.067Z,64.00
2018-08-13T22:47:09.381Z,64.00
2018-08-13T22:49:37.714Z,64.30
2018-08-13T22:52:06.249Z,64.30
2018-08-13T22:54:34.792Z,64.30
2018-08-13T22:57:03.227Z,64.50
2018-08-13T22:59:31.647Z,64.50
2018-08-13T23:01:59.955Z,64.80
2018-08-13T23:04:28.331Z,64.60
2018-08-13T23:06:56.727Z,65.20
2018-08-13T23:09:25.145Z,65.10
2018-08-13T23:11:53.476Z,65.10
2018-08-13T23:14:21.841Z,65.60
2018-08-13T23:16:50.282Z,65.20
2018-08-13T23:19:18.708Z,65.20
2018-08-13T23:21:47.168Z,65.10
2018-08-13T23:24:16.489Z,65.00
2018-08-13T23:26:44.804Z,65.20
2018-08-13T23:29:13.114Z,65.30
2018-08-13T23:31:41.580Z,65.00
2018-08-13T23:34:09.902Z,66.00
2018-08-13T23:36:38.383Z,65.70
2018-08-13T23:39:10.823Z,65.60
2018-08-13T23:41:39.121Z,65.60
2018-08-13T23:44:07.832Z,65.60
2018-08-13T23:46:36.144Z,65.50
2018-08-13T23:49:04.494Z,65.80
2018-08-13T23:51:32.888Z,66.30
2018-08-13T23:54:01.424Z,65.60
2018-08-13T23:56:29.805Z,65.60
2018-08-13T23:58:58.171Z,65.60
